Time;durP1;ratioP1;P1;durP2;ratioP2;P2;SDS_P1;SDS_P2;PMS_P1;PMS_P2;Temp;Humidity;BMP_temperature;BMP_pressure;BME280_temperature;BME280_humidity;BME280_pressure;Samples;Min_cycle;Max_cycle;Signal;HPM_P1;HPM_P2
2024/01/24 00:00:12;;;;;;;4.70;1.30;;;;;;;7.11;69.62;97108.34;5025742;28;20204;-67
2024/01/24 00:02:38;;;;;;;5.97;1.83;;;;;;;7.09;69.30;97120.56;5025634;28;20728;-67
2024/01/24 00:05:04;;;;;;;2.33;1.73;;;;;;;7.11;69.59;97121.41;5026418;28;20413;-68
2024/01/24 00:07:31;;;;;;;7.00;1.70;;;;;;;7.15;69.34;97122.19;5026188;28;20187;-68
2024/01/24 00:09:56;;;;;;;6.20;1.60;;;;;;;7.35;68.14;97116.59;5025486;28;20171;-67
2024/01/24 00:12:21;;;;;;;2.73;1.50;;;;;;;7.33;68.53;97114.00;5026153;28;20453;-67
2024/01/24 00:14:47;;;;;;;4.00;1.80;;;;;;;7.26;68.03;97122.00;5025481;28;20245;-65
2024/01/24 00:17:12;;;;;;;2.47;1.47;;;;;;;7.19;68.35;97119.47;5025456;28;20178;-67
2024/01/24 00:19:38;;;;;;;3.93;1.60;;;;;;;7.19;68.88;97122.09;5027344;28;20322;-66
2024/01/24 00:22:03;;;;;;;4.13;1.57;;;;;;;7.28;67.98;97125.44;5027318;28;20196;-66
2024/01/24 00:24:29;;;;;;;4.40;1.73;;;;;;;7.31;67.86;97133.19;5025938;28;20540;-67
2024/01/24 00:26:54;;;;;;;3.23;1.63;;;;;;;7.30;67.32;97123.63;5025763;28;20191;-65
2024/01/24 00:29:20;;;;;;;8.63;2.40;;;;;;;7.38;67.35;97106.94;5026210;28;20560;-66
2024/01/24 00:31:47;;;;;;;2.80;1.67;;;;;;;7.37;67.28;97126.13;5027711;28;20245;-67
2024/01/24 00:34:13;;;;;;;1.93;1.40;;;;;;;7.32;67.70;97125.34;5025801;28;20263;-67
2024/01/24 00:36:38;;;;;;;3.83;1.57;;;;;;;7.42;67.24;97123.41;5026026;28;20505;-68
2024/01/24 00:39:04;;;;;;;5.00;1.60;;;;;;;7.41;66.86;97127.75;5025577;28;20207;-67
2024/01/24 00:41:29;;;;;;;5.20;1.90;;;;;;;7.30;67.40;97127.13;5025420;28;20192;-67
2024/01/24 00:43:54;;;;;;;4.83;2.20;;;;;;;7.42;66.99;97115.56;5024779;28;20187;-67
2024/01/24 00:46:20;;;;;;;2.17;1.53;;;;;;;7.40;66.83;97102.53;5024930;28;20174;-65
2024/01/24 00:48:45;;;;;;;1.60;1.30;;;;;;;7.35;67.44;97100.94;5024772;28;20168;-67
2024/01/24 00:51:11;;;;;;;2.27;1.63;;;;;;;7.36;66.95;97092.19;5024357;28;20272;-67
2024/01/24 00:53:37;;;;;;;1.57;1.20;;;;;;;7.45;66.96;97093.75;5027145;28;20178;-67
2024/01/24 00:56:03;;;;;;;4.00;1.47;;;;;;;7.33;67.37;97087.91;5028186;28;20167;-67
2024/01/24 00:58:28;;;;;;;2.83;1.33;;;;;;;7.42;66.96;97105.13;5028160;28;20471;-67
2024/01/24 01:00:54;;;;;;;5.23;1.80;;;;;;;7.41;66.93;97093.81;5028474;28;20569;-67
2024/01/24 01:03:19;;;;;;;5.40;1.60;;;;;;;7.40;66.64;97088.63;5028747;28;20285;-66
2024/01/24 01:05:45;;;;;;;2.30;1.43;;;;;;;7.53;66.73;97081.41;5028357;28;20172;-67
2024/01/24 01:08:10;;;;;;;2.90;1.60;;;;;;;7.60;65.91;97075.16;5028274;28;20164;-67
2024/01/24 01:10:35;;;;;;;2.70;1.20;;;;;;;7.63;66.37;97081.19;5027791;28;20666;-68
2024/01/24 01:13:01;;;;;;;5.13;1.93;;;;;;;7.57;66.41;97070.84;5027933;28;20863;-65
2024/01/24 01:15:26;;;;;;;2.03;1.40;;;;;;;7.50;66.07;97061.44;5028119;28;20266;-67
2024/01/24 01:17:52;;;;;;;3.23;1.83;;;;;;;7.61;66.15;97056.00;5028133;28;20171;-67
2024/01/24 01:20:19;;;;;;;2.53;1.70;;;;;;;7.62;66.30;97062.91;5027652;28;20850;-66
2024/01/24 01:22:47;;;;;;;2.27;1.47;;;;;;;7.56;66.32;97050.88;5027845;28;20237;-65
2024/01/24 01:25:13;;;;;;;2.63;1.43;;;;;;;7.61;65.88;97048.16;5027844;28;20406;-65
2024/01/24 01:27:39;;;;;;;2.13;1.20;;;;;;;7.59;65.35;97056.00;5028099;28;20406;-66
2024/01/24 01:30:06;;;;;;;2.67;1.27;;;;;;;7.55;65.62;97051.75;5027855;28;20164;-65
2024/01/24 01:32:31;;;;;;;3.87;1.60;;;;;;;7.63;65.58;97041.16;5027949;28;20426;-66
2024/01/24 01:34:57;;;;;;;5.23;1.30;;;;;;;7.61;65.46;97028.09;5027957;28;20776;-66
2024/01/24 01:37:23;;;;;;;5.33;1.47;;;;;;;7.51;66.51;97030.94;5028759;28;20267;-66
2024/01/24 01:39:52;;;;;;;2.10;1.10;;;;;;;7.61;66.84;97015.06;5028409;28;20203;-69
2024/01/24 01:42:17;;;;;;;3.17;1.40;;;;;;;7.52;67.19;97022.22;5028536;28;20430;-67
2024/01/24 01:44:48;;;;;;;2.77;1.57;;;;;;;7.56;66.22;97006.47;5028992;28;20403;-67
2024/01/24 01:47:15;;;;;;;2.90;1.60;;;;;;;7.64;66.22;97008.91;5028800;28;20167;-67
2024/01/24 01:49:44;;;;;;;2.90;1.23;;;;;;;7.47;66.64;97005.81;5029385;28;20814;-67
2024/01/24 01:52:10;;;;;;;5.00;1.47;;;;;;;7.55;66.40;96996.88;5027946;28;20430;-67
2024/01/24 01:54:37;;;;;;;2.17;1.30;;;;;;;7.45;67.03;96999.75;5028258;28;20770;-67
2024/01/24 01:57:04;;;;;;;2.03;1.30;;;;;;;7.51;67.03;97000.50;5028346;28;20228;-67
2024/01/24 01:59:30;;;;;;;2.70;1.67;;;;;;;7.48;66.38;97002.28;5027456;28;20490;-68
2024/01/24 02:02:00;;;;;;;6.40;1.70;;;;;;;7.49;66.73;96994.44;5027733;28;20499;-66
2024/01/24 02:04:26;;;;;;;4.73;1.07;;;;;;;7.39;67.06;96995.50;5027213;28;20192;-66
2024/01/24 02:06:53;;;;;;;5.40;1.70;;;;;;;7.52;66.26;96994.34;5027691;28;20417;-67
2024/01/24 02:09:18;;;;;;;5.07;1.33;;;;;;;7.47;66.50;96993.59;5027749;28;20924;-67
2024/01/24 02:11:44;;;;;;;3.73;1.30;;;;;;;7.33;66.45;96980.00;5027908;28;20426;-66
2024/01/24 02:14:11;;;;;;;2.63;1.40;;;;;;;7.32;66.05;96981.75;5027698;28;20179;-66
2024/01/24 02:16:36;;;;;;;2.13;1.20;;;;;;;7.32;66.82;96981.75;5027893;28;20175;-66
2024/01/24 02:19:01;;;;;;;2.53;1.33;;;;;;;7.51;66.17;96971.75;5027591;28;20448;-67
2024/01/24 02:21:27;;;;;;;5.50;1.90;;;;;;;7.51;65.34;96969.16;5027496;28;20191;-66
2024/01/24 02:23:53;;;;;;;2.70;1.40;;;;;;;7.42;66.00;96962.38;5027339;28;20172;-65
2024/01/24 02:26:19;;;;;;;5.03;1.80;;;;;;;7.45;65.69;96960.59;5027165;28;20287;-67
2024/01/24 02:28:44;;;;;;;3.67;1.80;;;;;;;7.37;66.19;96956.41;5027037;28;20509;-66
2024/01/24 02:31:09;;;;;;;3.60;1.57;;;;;;;7.47;65.64;96949.22;5027103;28;20270;-66
2024/01/24 02:33:35;;;;;;;2.77;1.50;;;;;;;7.56;65.50;96945.50;5027109;28;20263;-68
2024/01/24 02:36:00;;;;;;;3.80;1.60;;;;;;;7.45;65.24;96935.31;5026663;28;20584;-66
2024/01/24 02:38:25;;;;;;;2.50;1.40;;;;;;;7.34;66.11;96943.38;5026050;28;20284;-66
2024/01/24 02:40:51;;;;;;;3.27;1.37;;;;;;;7.34;65.98;96934.69;5025853;28;20218;-67
2024/01/24 02:43:16;;;;;;;2.70;1.47;;;;;;;7.27;nan;96947.03;5026463;28;20707;-66
2024/01/24 02:45:42;;;;;;;2.40;1.50;;;;;;;7.33;65.65;96933.00;5026270;28;20175;-67
2024/01/24 02:48:07;;;;;;;2.87;1.50;;;;;;;7.28;66.72;96933.09;5026278;28;20191;-67
2024/01/24 02:50:33;;;;;;;6.00;1.70;;;;;;;7.26;65.78;96929.66;5025887;28;20160;-67
2024/01/24 02:52:58;;;;;;;3.23;1.80;;;;;;;7.35;65.77;96936.44;5026427;28;20191;-67
2024/01/24 02:55:24;;;;;;;2.57;1.60;;;;;;;7.35;65.88;96942.50;5026150;28;20442;-67
2024/01/24 02:57:49;;;;;;;3.43;1.40;;;;;;;7.32;65.57;96945.19;5025940;28;20176;-67
2024/01/24 03:00:15;;;;;;;4.27;2.00;;;;;;;7.38;65.50;96952.88;5025793;28;20207;-67
2024/01/24 03:02:41;;;;;;;2.80;1.40;;;;;;;7.49;64.75;96949.16;5025733;28;20633;-66
2024/01/24 03:05:08;;;;;;;4.63;1.53;;;;;;;7.54;64.26;96942.09;5025763;28;20172;-66
2024/01/24 03:07:37;;;;;;;5.10;1.70;;;;;;;7.52;64.14;96960.41;5025758;28;20175;-67
2024/01/24 03:10:04;;;;;;;6.00;1.50;;;;;;;7.48;64.62;96947.44;5025829;28;20415;-66
2024/01/24 03:12:30;;;;;;;4.40;1.70;;;;;;;7.49;64.27;96954.38;5025908;28;20449;-68
2024/01/24 03:14:55;;;;;;;5.33;1.60;;;;;;;7.26;64.90;96944.47;5027168;28;20403;-67
2024/01/24 03:17:20;;;;;;;6.37;2.00;;;;;;;7.52;64.34;96942.13;5025775;28;20792;-66
2024/01/24 03:19:46;;;;;;;4.40;1.20;;;;;;;7.61;64.06;96939.31;5025821;28;20298;-66
2024/01/24 03:22:11;;;;;;;3.40;1.60;;;;;;;7.49;64.42;96929.16;5025881;28;20195;-66
2024/01/24 03:24:36;;;;;;;3.90;1.40;;;;;;;7.52;65.17;96913.41;5026017;28;20635;-66
2024/01/24 03:27:02;;;;;;;2.03;1.50;;;;;;;7.67;64.66;96916.53;5026268;28;20175;-67
2024/01/24 03:29:27;;;;;;;3.37;2.80;;;;;;;7.57;64.62;96926.34;5025405;28;20690;-70
2024/01/24 03:31:52;;;;;;;2.80;1.70;;;;;;;7.67;65.31;96930.44;5025764;28;20183;-66
2024/01/24 03:34:18;;;;;;;8.37;2.10;;;;;;;7.69;65.02;96933.03;5025814;28;21085;-67
2024/01/24 03:36:43;;;;;;;3.93;1.30;;;;;;;7.76;65.41;96935.47;5025448;28;20206;-66
2024/01/24 03:39:12;;;;;;;2.00;1.60;;;;;;;7.70;65.82;96925.19;5025603;28;20776;-65
2024/01/24 03:41:38;;;;;;;3.63;1.57;;;;;;;7.89;66.36;96924.69;5025100;28;20191;-66
2024/01/24 03:44:04;;;;;;;7.33;3.03;;;;;;;7.91;67.32;96933.38;5025248;28;20487;-66
2024/01/24 03:46:29;;;;;;;8.50;2.53;;;;;;;8.06;67.46;96923.38;5025104;28;20414;-67
2024/01/24 03:48:54;;;;;;;4.17;2.00;;;;;;;8.16;68.03;96923.16;5025180;28;20417;-67
2024/01/24 03:51:20;;;;;;;2.03;1.37;;;;;;;8.21;68.24;96924.75;5025290;28;20627;-68
2024/01/24 03:53:45;;;;;;;3.37;1.10;;;;;;;8.22;68.55;96916.03;5025108;28;20187;-68
2024/01/24 03:56:11;;;;;;;2.90;1.13;;;;;;;8.31;68.45;96911.44;5026116;28;20171;-68
2024/01/24 03:58:37;;;;;;;3.73;1.47;;;;;;;8.39;68.81;96912.09;5025216;28;20167;-68
2024/01/24 04:01:02;;;;;;;1.30;1.10;;;;;;;8.51;68.36;96908.31;5025269;28;20190;-67
2024/01/24 04:03:28;;;;;;;1.57;1.10;;;;;;;8.46;68.92;96906.69;5025184;28;20438;-67
2024/01/24 04:05:53;;;;;;;2.70;1.97;;;;;;;8.47;68.89;96916.22;5025176;28;20176;-67
2024/01/24 04:08:18;;;;;;;2.50;1.33;;;;;;;8.54;69.17;96905.63;5025584;28;20218;-67
2024/01/24 04:10:44;;;;;;;3.00;1.50;;;;;;;8.64;69.65;96909.69;5028556;28;20192;-67
2024/01/24 04:13:09;;;;;;;4.77;1.63;;;;;;;8.66;70.07;96919.19;5043729;28;20266;-68
2024/01/24 04:15:35;;;;;;;2.57;1.20;;;;;;;8.74;70.04;96910.28;5029445;28;20194;-67
2024/01/24 04:18:00;;;;;;;2.80;1.30;;;;;;;8.72;69.95;96920.81;5027876;28;20168;-67
2024/01/24 04:20:26;;;;;;;1.90;1.10;;;;;;;8.73;69.75;96909.41;5042375;28;20218;-68
2024/01/24 04:22:52;;;;;;;3.93;1.50;;;;;;;8.79;70.18;96908.41;5044320;28;20226;-69
2024/01/24 04:25:17;;;;;;;4.30;1.77;;;;;;;8.81;69.44;96919.66;5033548;28;20415;-67
2024/01/24 04:27:43;;;;;;;2.90;1.50;;;;;;;8.83;69.75;96920.47;5029074;28;20873;-68
2024/01/24 04:30:09;;;;;;;2.03;1.00;;;;;;;8.93;68.90;96914.09;5031930;28;20176;-67
2024/01/24 04:32:34;;;;;;;3.90;1.70;;;;;;;8.95;68.34;96919.28;5030637;28;20202;-67
2024/01/24 04:34:59;;;;;;;2.67;1.27;;;;;;;8.99;68.36;96913.91;5030525;28;20819;-68
2024/01/24 04:37:25;;;;;;;4.37;1.30;;;;;;;8.94;67.77;96914.94;5029708;28;20274;-68
2024/01/24 04:39:51;;;;;;;2.90;1.17;;;;;;;9.04;67.18;96930.31;5029654;28;20227;-68
2024/01/24 04:42:17;;;;;;;1.73;1.43;;;;;;;9.04;67.18;96924.25;5028708;28;20201;-67
2024/01/24 04:44:43;;;;;;;2.93;1.10;;;;;;;8.98;66.87;96922.66;5029239;28;20802;-67
2024/01/24 04:47:08;;;;;;;3.23;1.60;;;;;;;9.04;67.09;96938.19;5028922;28;20175;-68
2024/01/24 04:49:34;;;;;;;2.60;1.20;;;;;;;9.03;66.46;96941.72;5028734;28;20515;-68
2024/01/24 04:52:00;;;;;;;3.20;1.40;;;;;;;9.12;66.58;96943.22;5028630;28;20666;-68
2024/01/24 04:54:25;;;;;;;4.30;1.40;;;;;;;9.10;66.65;96951.09;5027022;28;20267;-67
2024/01/24 04:56:51;;;;;;;1.47;1.27;;;;;;;9.13;66.47;96944.06;5028240;28;20410;-67
2024/01/24 04:59:16;;;;;;;2.10;1.07;;;;;;;9.16;66.61;96951.81;5028490;28;20752;-68
2024/01/24 05:01:41;;;;;;;4.40;1.30;;;;;;;9.13;66.38;96941.44;5028465;28;20187;-68
2024/01/24 05:04:07;;;;;;;2.00;1.13;;;;;;;9.09;66.63;96952.03;5028868;28;20183;-68
2024/01/24 05:06:33;;;;;;;2.77;1.40;;;;;;;9.18;66.09;96955.25;5028524;28;20172;-68
2024/01/24 05:08:58;;;;;;;3.23;1.40;;;;;;;9.14;66.97;96945.78;5026789;28;20178;-68
2024/01/24 05:11:24;;;;;;;2.43;1.63;;;;;;;9.19;66.60;96944.75;5028039;28;20194;-68
2024/01/24 05:13:49;;;;;;;2.47;1.33;;;;;;;9.14;67.22;96946.63;5028668;28;20651;-66
2024/01/24 05:16:15;;;;;;;2.30;1.70;;;;;;;9.16;67.50;96955.28;5028926;28;20852;-68
2024/01/24 05:18:40;;;;;;;3.53;1.40;;;;;;;9.09;67.71;96952.03;5028378;28;20175;-66
2024/01/24 05:21:06;;;;;;;3.80;1.57;;;;;;;9.22;67.26;96955.13;5028503;28;20195;-67
2024/01/24 05:23:32;;;;;;;1.63;1.20;;;;;;;9.22;67.55;96954.28;5028056;28;20175;-68
2024/01/24 05:25:57;;;;;;;4.10;1.50;;;;;;;9.24;67.42;96948.09;5028055;28;20225;-68
2024/01/24 05:28:23;;;;;;;1.60;1.13;;;;;;;9.26;67.49;96950.63;5028146;28;20414;-67
2024/01/24 05:30:48;;;;;;;1.37;1.03;;;;;;;9.29;67.67;96935.69;5028327;28;20193;-67
2024/01/24 05:33:14;;;;;;;2.40;1.40;;;;;;;9.28;68.33;96946.22;5025491;28;20175;-68
2024/01/24 05:35:39;;;;;;;1.70;1.30;;;;;;;9.30;68.38;96945.25;5025134;28;20215;-68
2024/01/24 05:38:04;;;;;;;2.03;1.13;;;;;;;9.40;68.70;96939.75;5027717;28;20756;-67
2024/01/24 05:40:30;;;;;;;5.40;1.50;;;;;;;9.37;68.72;96952.94;5026833;28;20971;-68
2024/01/24 05:42:55;;;;;;;5.00;1.40;;;;;;;9.44;68.98;96938.75;5028081;28;20202;-67
2024/01/24 05:45:22;;;;;;;4.40;1.40;;;;;;;9.41;68.88;96949.34;5027172;28;20241;-66
2024/01/24 05:47:48;;;;;;;1.73;1.17;;;;;;;9.46;69.66;96945.66;5028223;28;20852;-68
2024/01/24 05:50:14;;;;;;;1.87;1.10;;;;;;;9.41;69.87;96947.56;5027760;28;20415;-67
2024/01/24 05:52:43;;;;;;;1.70;1.00;;;;;;;9.49;69.73;96944.72;5027937;28;20199;-70
2024/01/24 05:55:11;;;;;;;2.87;1.60;;;;;;;9.53;69.82;96944.56;5027720;28;20258;-68
2024/01/24 05:57:41;;;;;;;1.97;1.40;;;;;;;9.50;70.79;96944.69;5027834;28;20414;-67
2024/01/24 06:00:13;;;;;;;1.37;1.00;;;;;;;9.61;70.48;96928.59;5027938;28;20865;-67
2024/01/24 06:02:39;;;;;;;1.80;1.30;;;;;;;9.63;70.76;96937.28;5027914;28;20469;-67
2024/01/24 06:05:05;;;;;;;2.20;1.43;;;;;;;9.63;71.08;96934.66;5026372;28;20941;-68
2024/01/24 06:07:31;;;;;;;3.97;1.67;;;;;;;9.56;71.81;96933.13;5020312;28;20512;-68
2024/01/24 06:09:57;;;;;;;2.73;1.20;;;;;;;9.60;72.11;96932.13;5026381;28;20422;-68
2024/01/24 06:12:23;;;;;;;1.90;1.30;;;;;;;9.62;72.64;96926.88;5027640;28;20718;-68
2024/01/24 06:14:49;;;;;;;2.47;1.43;;;;;;;9.72;72.46;96923.03;5027370;28;20437;-67
2024/01/24 06:17:15;;;;;;;5.67;1.43;;;;;;;9.75;72.91;96925.53;5027231;28;20207;-68
2024/01/24 06:19:42;;;;;;;3.97;2.03;;;;;;;9.79;73.22;96944.66;5020509;28;20509;-68
2024/01/24 06:22:08;;;;;;;2.63;1.27;;;;;;;9.78;73.41;96943.81;5015388;28;20212;-68
2024/01/24 06:24:35;;;;;;;3.00;1.33;;;;;;;9.79;74.03;96950.75;5021507;28;20437;-68
2024/01/24 06:27:00;;;;;;;2.20;1.20;;;;;;;9.79;74.48;96945.50;5015442;28;20591;-67
2024/01/24 06:29:26;;;;;;;2.60;1.13;;;;;;;9.92;73.97;96938.09;5024231;28;20434;-68
2024/01/24 06:31:51;;;;;;;3.40;1.20;;;;;;;9.95;74.18;96925.75;5024714;28;20203;-68
2024/01/24 06:34:17;;;;;;;1.33;1.10;;;;;;;9.93;74.26;96932.81;5008918;28;20191;-68
2024/01/24 06:36:42;;;;;;;8.00;1.60;;;;;;;9.94;74.42;96945.03;5013538;28;20184;-68
2024/01/24 06:39:09;;;;;;;2.23;1.30;;;;;;;10.02;74.53;96939.53;5024693;28;20547;-68
2024/01/24 06:41:35;;;;;;;2.60;1.43;;;;;;;10.00;75.20;96954.44;5024425;28;20211;-69
2024/01/24 06:44:00;;;;;;;5.27;1.60;;;;;;;10.03;74.90;96958.75;5025926;28;21247;-67
2024/01/24 06:46:29;;;;;;;4.30;1.53;;;;;;;10.08;75.26;96956.81;5025670;28;20255;-67
2024/01/24 06:48:54;;;;;;;2.27;1.30;;;;;;;10.14;75.03;96961.88;5025118;28;20180;-67
2024/01/24 06:51:19;;;;;;;1.90;1.33;;;;;;;10.17;74.94;96962.59;5025150;28;20442;-68
2024/01/24 06:53:45;;;;;;;3.13;1.27;;;;;;;10.16;75.12;96970.56;5025419;28;20180;-68
2024/01/24 06:56:10;;;;;;;3.20;1.50;;;;;;;10.22;75.13;96959.00;5025557;28;20555;-67
2024/01/24 06:58:40;;;;;;;6.43;1.53;;;;;;;10.30;74.54;96957.88;5025456;28;20175;-68
2024/01/24 07:01:06;;;;;;;10.43;1.53;;;;;;;10.30;74.71;96964.84;5025383;28;20200;-67
2024/01/24 07:03:31;;;;;;;2.13;1.30;;;;;;;10.46;74.13;96957.31;5026286;28;20928;-68
2024/01/24 07:05:56;;;;;;;4.93;1.70;;;;;;;10.35;74.76;96947.22;5025851;28;20195;-68
2024/01/24 07:08:23;;;;;;;2.60;1.27;;;;;;;10.41;74.23;96933.00;5025229;28;20231;-67
2024/01/24 07:10:48;;;;;;;1.37;1.10;;;;;;;10.41;74.51;96943.50;5024139;28;20207;-68
2024/01/24 07:13:14;;;;;;;2.80;1.13;;;;;;;10.55;74.02;96931.63;5025438;28;20418;-66
2024/01/24 07:15:39;;;;;;;1.50;1.20;;;;;;;10.51;74.07;96930.03;5026840;28;20175;-66
2024/01/24 07:18:05;;;;;;;1.40;1.07;;;;;;;10.73;73.50;96919.63;5027321;28;20181;-68
2024/01/24 07:20:30;;;;;;;6.20;1.23;;;;;;;10.57;73.99;96918.44;5025286;28;20661;-66
2024/01/24 07:22:56;;;;;;;3.97;2.13;;;;;;;10.52;73.65;96897.63;5026422;28;20256;-66
2024/01/24 07:25:21;;;;;;;2.10;1.17;;;;;;;10.54;74.06;96898.41;5026697;28;20175;-67
2024/01/24 07:27:47;;;;;;;3.93;1.63;;;;;;;10.47;74.44;96907.44;5026770;28;20172;-68
2024/01/24 07:30:15;;;;;;;3.03;1.30;;;;;;;10.49;74.24;96916.09;5027863;28;20211;-68
2024/01/24 07:32:41;;;;;;;6.17;1.60;;;;;;;10.54;73.90;96929.91;5027176;28;20444;-67
2024/01/24 07:35:07;;;;;;;16.57;2.80;;;;;;;10.52;74.04;96930.88;5025568;28;20504;-67
2024/01/24 07:37:33;;;;;;;2.90;1.60;;;;;;;10.53;73.75;96940.44;5024468;28;20202;-67
2024/01/24 07:39:58;;;;;;;3.77;1.57;;;;;;;10.52;74.07;96946.63;5025806;28;20462;-67
2024/01/24 07:42:24;;;;;;;3.67;1.50;;;;;;;10.60;73.59;96963.78;5026349;28;20205;-66
2024/01/24 07:44:49;;;;;;;7.63;2.03;;;;;;;10.67;73.33;96951.31;5026847;28;20266;-70
2024/01/24 07:47:18;;;;;;;8.17;1.30;;;;;;;10.67;73.22;96948.69;5026394;28;20183;-67
2024/01/24 07:49:44;;;;;;;3.10;1.43;;;;;;;10.64;73.03;96967.19;5026848;28;20233;-67
2024/01/24 07:52:09;;;;;;;2.33;1.30;;;;;;;10.61;73.44;96951.56;5027886;28;20430;-68
2024/01/24 07:54:35;;;;;;;2.13;1.20;;;;;;;10.63;73.53;96959.34;5028015;28;20744;-67
2024/01/24 07:57:01;;;;;;;3.10;1.60;;;;;;;10.67;73.79;96967.06;5027910;28;20181;-68
2024/01/24 07:59:26;;;;;;;2.77;1.60;;;;;;;10.70;73.90;96959.09;5027440;28;20207;-68
2024/01/24 08:01:52;;;;;;;3.43;1.50;;;;;;;10.70;73.42;96952.97;5027161;28;20426;-66
2024/01/24 08:04:17;;;;;;;2.17;1.40;;;;;;;10.66;74.10;96951.41;5027113;28;20282;-65
2024/01/24 08:06:45;;;;;;;4.50;1.57;;;;;;;10.75;73.40;96944.03;5027701;28;20179;-65
2024/01/24 08:09:11;;;;;;;3.07;1.70;;;;;;;10.74;73.36;96930.97;5027741;28;20229;-66
2024/01/24 08:11:36;;;;;;;4.03;1.60;;;;;;;10.76;73.44;96924.75;5027475;28;20442;-66
2024/01/24 08:14:01;;;;;;;11.20;2.87;;;;;;;10.71;73.67;96931.94;5027241;28;20183;-67
2024/01/24 08:16:27;;;;;;;2.00;1.20;;;;;;;10.66;73.72;96923.38;5027106;28;20179;-67
2024/01/24 08:18:54;;;;;;;2.40;1.20;;;;;;;10.75;73.58;96932.69;5026988;28;20859;-69
2024/01/24 08:21:20;;;;;;;2.70;1.30;;;;;;;10.80;73.15;96926.34;5027944;28;20199;-67
2024/01/24 08:23:45;;;;;;;3.60;1.50;;;;;;;10.86;72.75;96908.66;5029262;28;20449;-67
2024/01/24 08:26:10;;;;;;;6.87;1.40;;;;;;;10.83;72.50;96914.88;5027947;28;20178;-67
2024/01/24 08:28:36;;;;;;;3.80;1.30;;;;;;;10.88;72.62;96912.94;5028541;28;20696;-68
2024/01/24 08:31:01;;;;;;;2.90;1.50;;;;;;;10.92;72.57;96917.16;5028952;28;20194;-65
2024/01/24 08:33:27;;;;;;;4.27;1.40;;;;;;;10.92;72.43;96914.53;5029052;28;20171;-68
2024/01/24 08:35:52;;;;;;;3.30;1.60;;;;;;;11.01;72.30;96908.09;5029535;28;20171;-67
2024/01/24 08:38:17;;;;;;;1.97;1.50;;;;;;;10.97;72.76;96917.84;5028463;28;20237;-67
2024/01/24 08:40:43;;;;;;;2.23;1.33;;;;;;;10.91;72.96;96933.81;5028872;28;20231;-67
2024/01/24 08:43:09;;;;;;;2.37;1.40;;;;;;;10.88;72.88;96943.59;5027194;28;20172;-66
2024/01/24 08:45:34;;;;;;;2.70;1.10;;;;;;;10.89;72.80;96966.31;5029218;28;20190;-68
2024/01/24 08:48:00;;;;;;;6.50;1.40;;;;;;;10.93;72.50;96960.03;5028866;28;20526;-69
2024/01/24 08:50:25;;;;;;;5.27;1.63;;;;;;;10.95;72.66;96945.09;5027949;28;20694;-69
2024/01/24 08:52:52;;;;;;;2.93;1.80;;;;;;;11.02;72.43;96939.53;5028529;28;20323;-67
2024/01/24 08:55:17;;;;;;;2.93;1.50;;;;;;;11.06;72.73;96932.41;5027839;28;20190;-66
2024/01/24 08:57:43;;;;;;;1.60;1.10;;;;;;;11.05;72.57;96922.81;5027905;28;20403;-67
2024/01/24 09:00:11;;;;;;;5.70;2.60;;;;;;;11.06;72.71;96906.16;5027525;28;20201;-67
2024/01/24 09:02:36;;;;;;;2.60;1.80;;;;;;;11.18;72.25;96915.34;5028240;28;20199;-67
2024/01/24 09:05:02;;;;;;;7.77;2.10;;;;;;;11.35;71.66;96933.09;5027782;28;20855;-67
2024/01/24 09:07:27;;;;;;;5.10;1.70;;;;;;;11.34;70.89;96923.47;5028028;28;20222;-66
2024/01/24 09:09:53;;;;;;;2.30;1.20;;;;;;;11.39;70.93;96932.91;5027880;28;20259;-67
2024/01/24 09:12:18;;;;;;;3.03;1.37;;;;;;;11.51;71.02;96920.22;5028288;28;20218;-67
2024/01/24 09:14:47;;;;;;;8.37;1.40;;;;;;;11.36;71.71;96917.28;5029926;28;20176;-66
2024/01/24 09:17:13;;;;;;;2.97;1.23;;;;;;;11.33;72.03;96908.63;5032075;28;20649;-69
2024/01/24 09:19:41;;;;;;;2.80;1.07;;;;;;;11.41;71.22;96914.47;5032917;28;20525;-68
2024/01/24 09:22:08;;;;;;;1.50;1.10;;;;;;;11.33;71.32;96930.50;5032162;28;20196;-67
2024/01/24 09:24:35;;;;;;;14.73;2.23;;;;;;;11.28;72.18;96924.56;5030289;28;20930;-67
2024/01/24 09:27:01;;;;;;;8.30;2.00;;;;;;;11.30;72.10;96924.53;5027856;28;20434;-68
2024/01/24 09:29:27;;;;;;;4.03;1.90;;;;;;;11.37;72.29;96912.88;5028652;28;20430;-68
2024/01/24 09:31:52;;;;;;;2.80;1.63;;;;;;;11.56;71.80;96897.22;5045065;28;20479;-67
2024/01/24 09:34:17;;;;;;;1.97;1.23;;;;;;;11.83;70.81;96911.91;5050205;28;20281;-67
2024/01/24 09:36:43;;;;;;;4.77;1.40;;;;;;;11.96;70.31;96930.69;5036397;28;20185;-68
2024/01/24 09:39:09;;;;;;;2.10;1.03;;;;;;;12.20;69.56;96914.81;5030935;28;20230;-68
2024/01/24 09:41:40;;;;;;;3.57;1.20;;;;;;;12.19;68.98;96913.06;5030572;28;20188;-67
2024/01/24 09:44:06;;;;;;;2.00;1.40;;;;;;;12.20;69.37;96925.34;5029841;28;20184;-68
2024/01/24 09:46:35;;;;;;;2.10;1.13;;;;;;;12.10;69.56;96935.38;5037562;28;20401;-68
2024/01/24 09:49:01;;;;;;;1.73;1.40;;;;;;;12.10;69.83;96926.66;5045972;28;20407;-68
2024/01/24 09:51:31;;;;;;;4.10;1.20;;;;;;;12.17;69.32;96933.38;5035526;28;20454;-68
2024/01/24 09:54:01;;;;;;;2.60;1.27;;;;;;;12.21;69.48;96933.16;5040093;28;20403;-66
2024/01/24 09:56:29;;;;;;;5.03;2.00;;;;;;;12.63;70.13;96934.03;5035856;28;20418;-67
2024/01/24 09:58:54;;;;;;;5.73;1.70;;;;;;;13.13;68.36;96915.97;5032157;28;20505;-67
2024/01/24 10:01:21;;;;;;;5.47;1.47;;;;;;;12.98;67.11;96914.03;5023618;28;20608;-67
2024/01/24 10:03:47;;;;;;;3.43;1.37;;;;;;;12.84;67.67;96919.91;5033314;28;20179;-66
2024/01/24 10:06:14;;;;;;;4.07;1.00;;;;;;;12.84;67.66;96906.72;5035516;28;20414;-67
2024/01/24 10:08:40;;;;;;;2.07;1.10;;;;;;;12.76;67.49;96906.25;5037050;28;20418;-67
2024/01/24 10:11:06;;;;;;;1.30;0.77;;;;;;;12.68;67.76;96922.38;5061478;28;20491;-67
2024/01/24 10:13:32;;;;;;;2.73;1.43;;;;;;;12.73;67.91;96908.97;5048652;28;20533;-69
2024/01/24 10:15:59;;;;;;;1.47;1.00;;;;;;;12.73;68.19;96916.88;5033689;28;20428;-66
2024/01/24 10:18:25;;;;;;;2.60;1.07;;;;;;;12.62;68.52;96927.06;5032462;28;20171;-68
2024/01/24 10:20:50;;;;;;;1.60;1.07;;;;;;;12.46;68.99;96926.84;5021207;28;20473;-70
2024/01/24 10:23:16;;;;;;;1.70;1.00;;;;;;;12.44;69.12;96928.69;5039166;28;20254;-67
2024/01/24 10:25:41;;;;;;;3.90;1.20;;;;;;;12.31;69.42;96920.47;5047967;28;20202;-68
2024/01/24 10:28:14;;;;;;;1.47;0.90;;;;;;;12.23;70.55;96917.31;5047470;28;20724;-66
2024/01/24 10:30:40;;;;;;;2.33;1.00;;;;;;;12.13;70.83;96911.56;5048713;28;20248;-69
2024/01/24 10:33:10;;;;;;;2.40;1.53;;;;;;;12.16;71.12;96921.97;5048352;28;20891;-67
2024/01/24 10:35:36;;;;;;;2.47;2.20;;;;;;;12.28;70.15;96923.22;5047992;28;20788;-67
2024/01/24 10:38:02;;;;;;;1.40;1.00;;;;;;;12.21;70.35;96935.81;5047691;28;20464;-67
2024/01/24 10:40:28;;;;;;;1.70;1.20;;;;;;;12.19;70.57;96929.75;5040914;28;20234;-69
2024/01/24 10:43:01;;;;;;;2.63;1.20;;;;;;;12.14;70.99;96929.09;5028781;28;20187;-69
2024/01/24 10:45:31;;;;;;;1.40;1.10;;;;;;;12.14;71.46;96958.03;5030797;28;21024;-67
2024/01/24 10:47:58;;;;;;;1.40;1.07;;;;;;;12.20;71.10;96943.75;5033346;28;20532;-68
2024/01/24 10:50:24;;;;;;;2.30;1.20;;;;;;;12.27;71.23;96935.53;5026041;28;20427;-68
2024/01/24 10:52:51;;;;;;;1.97;1.27;;;;;;;12.23;71.45;96949.72;5022871;28;20432;-68
2024/01/24 10:55:17;;;;;;;1.63;1.00;;;;;;;12.27;71.51;96950.47;5030430;28;21075;-68
2024/01/24 10:57:44;;;;;;;1.90;1.00;;;;;;;12.20;72.23;96952.50;5032756;28;20418;-68
2024/01/24 11:00:11;;;;;;;1.17;0.90;;;;;;;12.47;71.40;96947.84;5029010;28;20222;-69
2024/01/24 11:02:41;;;;;;;3.63;0.80;;;;;;;12.65;69.46;96959.34;5031350;28;20458;-67
2024/01/24 11:05:11;;;;;;;2.17;1.17;;;;;;;12.60;70.01;96942.06;5028461;28;20429;-67
2024/01/24 11:07:43;;;;;;;1.87;1.40;;;;;;;12.69;69.99;96954.81;5034225;28;20406;-68
2024/01/24 11:10:24;;;;;;;5.50;3.40;;;;;;;12.52;70.38;96950.28;5032944;28;20430;-68
2024/01/24 11:12:49;;;;;;;1.10;0.80;;;;;;;12.43;71.14;96962.06;5028750;28;20406;-68
2024/01/24 11:15:15;;;;;;;1.30;1.00;;;;;;;12.42;70.61;96959.47;5029433;28;20410;-68
2024/01/24 11:17:43;;;;;;;3.17;1.10;;;;;;;12.52;70.84;96950.28;5031803;28;20725;-68
2024/01/24 11:20:10;;;;;;;2.63;1.00;;;;;;;12.48;71.20;96943.44;5031993;28;20226;-68
2024/01/24 11:22:37;;;;;;;2.03;0.93;;;;;;;12.42;72.00;96947.16;5029877;28;20461;-69
2024/01/24 11:25:04;;;;;;;2.30;1.20;;;;;;;12.47;71.39;96928.56;5030937;28;20473;-68
2024/01/24 11:27:33;;;;;;;2.50;1.00;;;;;;;12.65;71.71;96924.28;5028290;28;20454;-68
2024/01/24 11:30:14;;;;;;;1.63;1.00;;;;;;;12.62;71.22;96904.22;5026556;28;20858;-68
2024/01/24 11:32:47;;;;;;;1.30;0.80;;;;;;;12.50;71.04;96915.28;5042968;28;20496;-69